LEPA Airport Information

Runway Information
Runway 06L Length 10728 ft width 148 ft
Elevation 15 ft Threshold 0 ft Heading 59
Runway 24R Length 10728 ft Width 148 ft
Elevation 8 ft Threshold 230 ft Heading 239
Runway 06R Length 9842 ft width 148 ft
Elevation 24 ft Threshold 1345 ft Heading 59
Runway 24L Length 9842 ft Width 148 ft
Elevation 8 ft Threshold 0 ft Heading 239
Airport Frequencies
Type APP Name APP Frequency 118.95 MHZ
Type ATIS Name ATIS Frequency 119.25 MHZ
Type CLD Name CLNC DEL Frequency 121.6 MHZ
Type GND Name GND Frequency 121.7 MHZ
Type OPS Name OPS Frequency 130.25 MHZ
Type TWR Name TWR Frequency 118.3 MHZ
Airport Navaids
Airport Weather Information & NOTAM
ADDS - METARS form results

(0246 UTC 14 November 2018)
Data provider http://aviationweather.gov/metar/data/
 
METAR text: LEPA 140230Z VRB02KT CAVOK 12/12 Q1024 NOSIG
Conditions at: LEPA (PALMA DE MALLORC, ES) observed 0230 UTC 14 November 2018
Temperature: 12.0°C (54°F)
Dewpoint: 12.0°C (54°F) [RH = 100%]
Pressure (altimeter): 30.24 inches Hg (1024.0 mb)
Winds: variable direction winds at 2 MPH (2 knots; 1.0 m/s)
Visibility: 6 or more miles (10+ km)
Ceiling: ceiling and visibility are OK
Clouds: unknown
Weather: no significant weather observed at this time

METAR text: LEPA 140200Z VRB02KT CAVOK 12/12 Q1024 NOSIG
Conditions at: LEPA (PALMA DE MALLORC, ES) observed 0200 UTC 14 November 2018
Temperature: 12.0°C (54°F)
Dewpoint: 12.0°C (54°F) [RH = 100%]
Pressure (altimeter): 30.24 inches Hg (1024.0 mb)
Winds: variable direction winds at 2 MPH (2 knots; 1.0 m/s)
Visibility: 6 or more miles (10+ km)
Ceiling: ceiling and visibility are OK
Clouds: unknown
Weather: no significant weather observed at this time

Forecast for: LEPA (PALMA DE MALLORC, ES)
Text: TAF LEPA 132300Z 1400/1424 06006KT 9999 SCT015 TX23/1412Z TN12/1406Z
Forecast period: 0000 UTC 14 November 2018 to 0000 UTC 15 November 2018
Forecast type: FROM: standard forecast or significant change
Winds: from the ENE (60 degrees) at 7 MPH (6 knots; 3.1 m/s)
Visibility: 6 or more miles 10+ km)
Ceiling: at least 12,000 feet AGL
Clouds: scattered clouds at 1500 feet AGL
Weather: no significant weather forecast for this period
Text: PROB40
Forecast period: 0000 to 0800 UTC 14 November 2018
Forecast type: TEMPORARY: The following changes expected for less than half the time period
Visibility: 1.86 miles (2.99 km)
Ceiling: 800 feet AGL
Clouds: broken clouds at 800 feet AGL
Weather: BR  (mist)
Text: TEMPO 1400/1408 3000 BR BKN008
Forecast period: 0000 to 0800 UTC 14 November 2018
Forecast type: TEMPORARY: The following changes expected for less than half the time period
Visibility: 0.31 miles (0.50 km)
Ceiling: indefinite ceiling with vertical visibility of 200 feet AGL
Clouds: obscured sky
Weather: FG  (fog)